createdAt,value
2022-08-05T00:02:53.771Z,67.32
2022-08-05T00:12:57.044Z,63.24
2022-08-05T00:23:02.567Z,53.02
2022-08-05T00:34:53.691Z,54.23
2022-08-05T00:43:47.240Z,68.68
2022-08-05T00:54:02.248Z,64.37
2022-08-05T01:04:13.686Z,52.41
2022-08-05T01:14:27.839Z,53.75
2022-08-05T01:24:47.933Z,68.49
2022-08-05T01:35:03.879Z,63.33
2022-08-05T01:45:15.639Z,52.24
2022-08-05T01:55:22.756Z,54.03
2022-08-05T02:05:30.628Z,68.12
2022-08-05T02:15:46.879Z,63.88
2022-08-05T02:25:51.183Z,52.53
2022-08-05T02:36:01.121Z,54.18
2022-08-05T02:46:04.720Z,68.25
2022-08-05T02:56:09.669Z,63.49
2022-08-05T03:06:55.754Z,53.05
2022-08-05T03:16:43.042Z,54.25
2022-08-05T03:26:49.314Z,69.21
2022-08-05T03:36:51.529Z,63.81
2022-08-05T03:46:54.496Z,52.58
2022-08-05T03:56:59.859Z,54.12
2022-08-05T04:07:03.973Z,68.16
2022-08-05T04:17:08.355Z,61.66
2022-08-05T04:27:13.923Z,49.28
2022-08-05T04:37:17.424Z,49.60
2022-08-05T04:47:20.182Z,51.16
2022-08-05T04:57:22.479Z,53.37
2022-08-05T05:07:35.375Z,53.02
2022-08-05T05:17:55.508Z,47.26
2022-08-05T05:27:59.442Z,41.07
2022-08-05T05:38:03.476Z,35.89
2022-08-05T05:48:08.626Z,34.04
2022-08-05T05:58:10.875Z,31.61
2022-08-05T06:08:13.454Z,29.19
2022-08-05T06:18:15.504Z,26.68
2022-08-05T06:28:21.107Z,24.19
2022-08-05T06:38:36.297Z,22.30
2022-08-05T06:48:55.379Z,19.96
2022-08-05T06:59:00.827Z,20.05
2022-08-05T07:09:04.724Z,18.16
2022-08-05T07:19:07.023Z,16.01
2022-08-05T07:29:10.114Z,16.74
2022-08-05T07:39:50.396Z,16.27
2022-08-05T07:49:34.300Z,14.43
2022-08-05T07:59:46.890Z,14.59
2022-08-05T08:09:53.039Z,13.80
2022-08-05T08:20:22.991Z,13.40
2022-08-05T08:30:32.644Z,12.92
2022-08-05T08:40:38.857Z,12.77
2022-08-05T08:51:22.246Z,12.01
2022-08-05T09:01:07.630Z,11.77
2022-08-05T09:11:16.074Z,11.56
2022-08-05T09:22:22.942Z,11.16
2022-08-05T09:32:41.866Z,10.95
2022-08-05T09:42:08.446Z,10.34
2022-08-05T09:52:24.016Z,10.09
2022-08-05T10:13:17.780Z,9.59
2022-08-05T10:23:55.326Z,10.10
2022-08-05T10:33:45.960Z,10.49
2022-08-05T10:44:01.679Z,11.37
2022-08-05T10:54:28.282Z,14.14
2022-08-05T11:04:34.344Z,17.58
2022-08-05T11:26:05.273Z,25.08
2022-08-05T11:36:07.672Z,29.96
2022-08-05T11:46:16.001Z,31.87
2022-08-05T11:56:50.505Z,34.35
2022-08-05T12:06:58.703Z,36.30
2022-08-05T12:17:57.862Z,37.09
2022-08-05T12:27:33.777Z,37.17
2022-08-05T12:37:37.099Z,37.40
2022-08-05T12:48:27.716Z,38.01
2022-08-05T12:58:48.496Z,37.64
2022-08-05T13:08:55.014Z,38.84
2022-08-05T13:18:58.586Z,39.60
2022-08-05T13:29:01.171Z,39.93
2022-08-05T13:39:08.475Z,40.46
2022-08-05T13:49:26.964Z,41.15
2022-08-05T13:59:30.693Z,41.15
2022-08-05T14:09:34.605Z,41.46
2022-08-05T14:19:54.103Z,41.59
2022-08-05T14:29:58.246Z,42.05
2022-08-05T14:40:01.414Z,41.38
2022-08-05T14:50:18.155Z,41.20
2022-08-05T15:00:21.722Z,41.75
2022-08-05T15:10:30.830Z,41.70
2022-08-05T15:20:38.969Z,41.51
2022-08-05T15:30:41.868Z,42.12
2022-08-05T15:41:20.310Z,42.84
2022-08-05T15:52:13.487Z,42.90
2022-08-05T16:01:53.576Z,42.78
2022-08-05T16:11:58.570Z,44.25
2022-08-05T16:22:03.002Z,44.81
2022-08-05T16:32:09.701Z,45.24
2022-08-05T16:42:17.551Z,45.64
2022-08-05T16:52:21.575Z,45.47
2022-08-05T17:02:24.313Z,46.37
2022-08-05T17:12:50.257Z,47.30
2022-08-05T17:22:55.413Z,47.75
2022-08-05T17:32:57.945Z,49.54
2022-08-05T17:43:02.348Z,51.25
2022-08-05T17:53:09.900Z,52.92
2022-08-05T18:03:56.327Z,54.80
2022-08-05T18:13:43.955Z,56.56
2022-08-05T18:23:47.007Z,58.13
2022-08-05T18:33:53.970Z,70.30
2022-08-05T18:44:05.850Z,56.66
2022-08-05T18:54:09.061Z,55.88
2022-08-05T19:04:12.332Z,68.05
2022-08-05T19:14:53.379Z,63.71
2022-08-05T19:24:37.758Z,52.81
2022-08-05T19:34:57.882Z,53.48
2022-08-05T19:45:02.154Z,65.52
2022-08-05T19:56:11.445Z,62.25
2022-08-05T20:05:49.765Z,52.52
2022-08-05T20:15:56.118Z,54.19
2022-08-05T20:26:00.018Z,66.78
2022-08-05T20:36:02.350Z,62.19
2022-08-05T20:46:07.003Z,53.64
2022-08-05T20:56:11.448Z,55.55
2022-08-05T21:06:27.673Z,66.82
2022-08-05T21:16:33.092Z,62.89
2022-08-05T21:26:37.176Z,53.64
2022-08-05T21:36:42.345Z,56.36
2022-08-05T21:46:48.625Z,66.81
2022-08-05T21:56:51.403Z,55.67
2022-08-05T22:06:54.280Z,56.51
2022-08-05T22:17:03.074Z,67.68
2022-08-05T22:27:25.831Z,63.67
2022-08-05T22:37:59.279Z,53.20
2022-08-05T22:48:01.952Z,55.11
2022-08-05T22:58:04.400Z,67.49
2022-08-05T23:08:07.225Z,63.58
2022-08-05T23:18:15.859Z,53.62
2022-08-05T23:28:18.154Z,55.53
2022-08-05T23:38:20.669Z,68.30
2022-08-05T23:48:22.528Z,64.41
2022-08-05T23:58:31.758Z,62.15
